Time;durP1;ratioP1;P1;durP2;ratioP2;P2;SDS_P1;SDS_P2;PMS_P1;PMS_P2;Temp;Humidity;BMP_temperature;BMP_pressure;BME280_temperature;BME280_humidity;BME280_pressure;Samples;Min_cycle;Max_cycle;Signal;HPM_P1;HPM_P2
2021/05/09 00:00:37;;;;;;;6.72;5.85;;;;;;;12.24;56.85;100388.06;5071735;28;20016;-65
2021/05/09 00:03:03;;;;;;;6.90;5.97;;;;;;;12.96;55.94;100382.94;5054084;28;20021;-65
2021/05/09 00:05:28;;;;;;;5.97;5.47;;;;;;;13.06;54.57;100382.72;5071593;28;20029;-65
2021/05/09 00:07:54;;;;;;;5.85;5.35;;;;;;;12.88;54.89;100379.63;5053879;28;20032;-65
2021/05/09 00:10:20;;;;;;;5.82;5.30;;;;;;;12.58;54.57;100376.75;5071780;28;20541;-64
2021/05/09 00:12:46;;;;;;;6.47;5.80;;;;;;;12.31;54.79;100373.81;5071740;28;20134;-65
2021/05/09 00:15:12;;;;;;;6.40;5.80;;;;;;;12.57;54.52;100375.88;5070537;28;20107;-65
2021/05/09 00:17:39;;;;;;;6.45;5.80;;;;;;;12.45;54.65;100382.28;5053681;28;20526;-64
2021/05/09 00:20:07;;;;;;;6.38;5.75;;;;;;;12.64;53.25;100373.97;5053566;28;20040;-65
2021/05/09 00:22:32;;;;;;;6.95;6.25;;;;;;;13.28;52.73;100366.31;5053842;28;20066;-65
2021/05/09 00:24:58;;;;;;;5.85;5.25;;;;;;;12.15;55.57;100370.59;5053625;28;20125;-64
2021/05/09 00:27:23;;;;;;;5.97;5.28;;;;;;;12.14;55.00;100377.66;5071130;28;20239;-65
2021/05/09 00:29:48;;;;;;;6.90;5.43;;;;;;;13.16;52.89;100355.09;5071289;28;20024;-65
2021/05/09 00:32:13;;;;;;;5.78;5.25;;;;;;;12.41;54.78;100363.91;5071314;28;20043;-64
2021/05/09 00:34:39;;;;;;;5.80;5.25;;;;;;;12.42;54.06;100353.28;5071587;28;20033;-65
2021/05/09 00:37:04;;;;;;;7.32;5.13;;;;;;;13.23;52.33;100357.63;5072805;28;20442;-64
2021/05/09 00:39:29;;;;;;;6.75;5.57;;;;;;;13.25;52.40;100359.31;5075240;28;20102;-65
2021/05/09 00:42:05;;;;;;;7.03;5.78;;;;;;;13.36;51.59;100356.38;5075612;28;20024;-65
2021/05/09 00:44:31;;;;;;;5.80;5.20;;;;;;;14.05;49.97;100362.53;5037692;28;20037;-65
2021/05/09 00:46:56;;;;;;;6.50;5.30;;;;;;;14.55;48.46;100359.28;5037465;28;20043;-65
2021/05/09 00:49:22;;;;;;;6.60;6.00;;;;;;;14.45;48.88;100361.34;5050360;28;20028;-65
2021/05/09 00:51:48;;;;;;;5.93;5.43;;;;;;;14.55;48.34;100358.41;5057572;28;20433;-65
2021/05/09 00:54:19;;;;;;;6.10;5.50;;;;;;;14.50;49.10;100359.44;5074320;28;20021;-65
2021/05/09 00:56:46;;;;;;;6.03;5.53;;;;;;;13.89;50.29;100367.38;5057254;28;20029;-65
2021/05/09 00:59:12;;;;;;;6.82;5.55;;;;;;;13.84;50.08;100356.94;5057403;28;20063;-65
2021/05/09 01:01:41;;;;;;;5.47;4.88;;;;;;;13.90;50.40;100358.53;5058508;28;20472;-65
2021/05/09 01:04:06;;;;;;;5.65;5.15;;;;;;;13.83;49.96;100352.50;5057779;28;20024;-65
2021/05/09 01:06:32;;;;;;;7.38;5.13;;;;;;;13.77;49.85;100355.34;5075065;28;20070;-64
2021/05/09 01:09:00;;;;;;;5.78;5.28;;;;;;;13.62;50.66;100344.25;5075148;28;20036;-65
2021/05/09 01:11:25;;;;;;;6.65;5.55;;;;;;;13.71;50.72;100344.00;5057063;28;20032;-65
2021/05/09 01:13:50;;;;;;;6.53;5.75;;;;;;;13.24;51.33;100343.47;5057232;28;20039;-65
2021/05/09 01:16:16;;;;;;;6.05;5.47;;;;;;;12.18;54.98;100359.97;5074308;28;20025;-64
2021/05/09 01:18:41;;;;;;;5.63;5.10;;;;;;;13.02;51.83;100350.16;5074936;28;20020;-64
2021/05/09 01:21:06;;;;;;;5.63;5.13;;;;;;;12.86;52.34;100344.34;5056342;28;20187;-64
2021/05/09 01:23:32;;;;;;;6.53;5.63;;;;;;;12.98;52.42;100350.25;5074943;28;20515;-65
2021/05/09 01:25:57;;;;;;;5.47;4.97;;;;;;;11.99;54.99;100346.22;5074470;28;20055;-65
2021/05/09 01:28:22;;;;;;;6.13;5.43;;;;;;;11.68;55.05;100348.56;5056754;28;20031;-64
2021/05/09 01:30:48;;;;;;;6.03;5.15;;;;;;;12.41;53.83;100353.31;5056591;28;20143;-64
2021/05/09 01:33:13;;;;;;;6.05;5.20;;;;;;;12.28;54.09;100352.72;5056870;28;20036;-64
2021/05/09 01:35:38;;;;;;;6.07;5.20;;;;;;;12.56;53.39;100352.09;5074128;28;20028;-65
2021/05/09 01:38:04;;;;;;;5.60;4.47;;;;;;;12.79;52.28;100340.13;5056660;28;20078;-65
2021/05/09 01:40:29;;;;;;;6.03;5.43;;;;;;;13.04;51.83;100336.88;5074588;28;20021;-65
2021/05/09 01:42:55;;;;;;;5.85;5.35;;;;;;;12.92;51.72;100343.34;5074069;28;20024;-64
2021/05/09 01:45:20;;;;;;;5.53;4.97;;;;;;;12.90;52.21;100335.44;5073841;28;20151;-64
2021/05/09 01:47:45;;;;;;;7.07;5.30;;;;;;;12.83;52.08;100344.44;5073810;28;20185;-64
2021/05/09 01:50:13;;;;;;;5.78;5.00;;;;;;;12.44;52.43;100343.53;5072944;28;20463;-64
2021/05/09 01:52:39;;;;;;;6.45;4.80;;;;;;;12.09;53.70;100339.88;5074116;28;20115;-65
2021/05/09 01:55:06;;;;;;;5.65;5.13;;;;;;;11.86;53.50;100343.81;5056442;28;20115;-66
2021/05/09 01:57:32;;;;;;;6.43;5.75;;;;;;;11.88;54.57;100347.31;5073738;28;20507;-66
2021/05/09 01:59:58;;;;;;;5.25;4.70;;;;;;;12.05;53.55;100351.38;5058135;28;20025;-65
2021/05/09 02:02:23;;;;;;;6.95;5.20;;;;;;;12.48;53.21;100351.41;5074068;28;20444;-65
2021/05/09 02:04:49;;;;;;;7.18;5.90;;;;;;;12.48;52.56;100349.66;5073862;28;20024;-65
2021/05/09 02:07:14;;;;;;;6.22;5.05;;;;;;;12.03;54.35;100347.91;5073966;28;20047;-64
2021/05/09 02:09:39;;;;;;;5.45;4.95;;;;;;;11.06;57.06;100349.66;5073912;28;20020;-65
2021/05/09 02:12:05;;;;;;;6.32;5.50;;;;;;;10.61;58.15;100352.97;5073670;28;20020;-64
2021/05/09 02:14:30;;;;;;;7.85;5.63;;;;;;;11.02;57.84;100347.97;5070366;28;20098;-64
2021/05/09 02:16:55;;;;;;;5.35;4.90;;;;;;;11.55;56.04;100342.63;5073557;28;20020;-64
2021/05/09 02:19:21;;;;;;;5.22;4.55;;;;;;;11.72;55.55;100345.88;5073755;28;20028;-64
2021/05/09 02:21:46;;;;;;;6.78;5.40;;;;;;;12.32;53.65;100338.53;5073887;28;20043;-64
2021/05/09 02:24:11;;;;;;;5.70;5.20;;;;;;;12.55;53.06;100339.78;5055910;28;20074;-65
2021/05/09 02:26:37;;;;;;;5.53;5.03;;;;;;;12.72;53.11;100338.50;5056519;28;20059;-65
2021/05/09 02:29:02;;;;;;;4.97;4.50;;;;;;;12.58;53.60;100339.72;5055783;28;20032;-65
2021/05/09 02:31:27;;;;;;;5.28;4.80;;;;;;;12.61;54.00;100326.44;5055833;28;20121;-65
2021/05/09 02:33:53;;;;;;;5.05;4.65;;;;;;;12.14;55.22;100316.00;5073622;28;20055;-65
2021/05/09 02:36:18;;;;;;;5.35;4.85;;;;;;;11.54;55.63;100329.47;5073412;28;20017;-65
2021/05/09 02:38:43;;;;;;;5.63;4.70;;;;;;;11.74;55.86;100317.66;5055573;28;20074;-65
2021/05/09 02:41:09;;;;;;;5.47;5.00;;;;;;;12.29;54.89;100309.50;5072971;28;20017;-65
2021/05/09 02:43:34;;;;;;;5.32;4.85;;;;;;;12.09;54.71;100307.28;5073319;28;20103;-65
2021/05/09 02:45:59;;;;;;;5.03;4.60;;;;;;;11.68;55.72;100314.22;5055445;28;20494;-65
2021/05/09 02:48:25;;;;;;;5.40;4.90;;;;;;;11.87;56.24;100305.91;5073244;28;20043;-65
2021/05/09 02:50:50;;;;;;;4.65;4.25;;;;;;;12.06;55.25;100303.81;5072755;28;20036;-65
2021/05/09 02:53:15;;;;;;;5.00;4.53;;;;;;;12.30;53.67;100308.59;5073326;28;20028;-64
2021/05/09 02:55:40;;;;;;;5.70;5.20;;;;;;;12.23;55.25;100318.44;5054988;28;20025;-65
2021/05/09 02:58:06;;;;;;;5.45;4.40;;;;;;;13.04;52.66;100305.13;5054900;28;20028;-65
2021/05/09 03:00:31;;;;;;;5.10;4.68;;;;;;;12.24;54.92;100311.38;5072098;28;20024;-64
2021/05/09 03:02:56;;;;;;;5.28;4.88;;;;;;;12.16;55.56;100320.34;5055100;28;20547;-64
2021/05/09 03:05:22;;;;;;;5.80;5.20;;;;;;;12.69;54.29;100315.66;5072710;28;20098;-65
2021/05/09 03:07:47;;;;;;;4.95;4.22;;;;;;;13.44;52.15;100300.56;5072819;28;20017;-64
2021/05/09 03:10:12;;;;;;;5.10;4.40;;;;;;;11.73;56.82;100314.13;5063905;28;20021;-64
2021/05/09 03:12:37;;;;;;;5.07;4.68;;;;;;;12.52;55.31;100323.97;5072729;28;20094;-65
2021/05/09 03:15:03;;;;;;;5.18;4.68;;;;;;;12.09;56.08;100316.09;5072513;28;20017;-64
2021/05/09 03:17:31;;;;;;;5.90;4.78;;;;;;;12.10;55.46;100320.47;5072388;28;20020;-65
2021/05/09 03:19:56;;;;;;;4.75;4.25;;;;;;;11.72;58.31;100322.09;5072709;28;20020;-64
2021/05/09 03:22:21;;;;;;;4.85;4.15;;;;;;;11.83;55.83;100319.25;5072642;28;20466;-64
2021/05/09 03:24:47;;;;;;;5.53;5.03;;;;;;;12.08;56.92;100326.69;5072107;28;20056;-65
2021/05/09 03:27:12;;;;;;;4.55;4.15;;;;;;;12.37;55.39;100325.22;5072335;28;20020;-64
2021/05/09 03:29:37;;;;;;;4.78;4.30;;;;;;;12.03;56.77;100316.19;5071842;28;20449;-64
2021/05/09 03:32:03;;;;;;;5.88;5.20;;;;;;;11.97;55.82;100329.53;5072294;28;20031;-64
2021/05/09 03:34:28;;;;;;;6.40;4.93;;;;;;;12.22;55.78;100316.69;5072200;28;20059;-65
2021/05/09 03:36:53;;;;;;;5.97;4.80;;;;;;;12.11;55.38;100324.88;5067552;28;20040;-65
2021/05/09 03:39:20;;;;;;;4.55;4.15;;;;;;;11.88;55.83;100318.25;5071819;28;20407;-63
2021/05/09 03:41:45;;;;;;;7.63;5.30;;;;;;;11.89;56.71;100313.81;5070921;28;20028;-65
2021/05/09 03:44:11;;;;;;;4.95;4.55;;;;;;;12.01;56.23;100307.44;5068248;28;20086;-64
2021/05/09 03:46:36;;;;;;;5.68;5.18;;;;;;;12.49;55.35;100308.16;5071485;28;20507;-65
2021/05/09 03:49:01;;;;;;;5.75;5.25;;;;;;;13.20;52.45;100311.75;5070678;28;20025;-64
2021/05/09 03:51:27;;;;;;;5.38;4.88;;;;;;;12.91;53.93;100309.84;5070230;28;20082;-65
2021/05/09 03:53:52;;;;;;;5.57;4.60;;;;;;;12.49;54.91;100308.16;5071828;28;20025;-64
2021/05/09 03:56:17;;;;;;;5.07;4.57;;;;;;;12.09;56.04;100310.81;5070558;28;20028;-65
2021/05/09 03:58:42;;;;;;;5.10;4.68;;;;;;;12.88;53.72;100300.22;5071232;28;20031;-64
2021/05/09 04:01:08;;;;;;;4.60;4.20;;;;;;;12.28;54.94;100313.06;5057568;28;20422;-65
2021/05/09 04:03:33;;;;;;;4.68;4.28;;;;;;;12.33;55.23;100308.53;5055160;28;20055;-64
2021/05/09 04:05:58;;;;;;;5.13;4.68;;;;;;;12.22;55.96;100305.25;5070478;28;20023;-64
2021/05/09 04:08:26;;;;;;;5.20;4.70;;;;;;;12.41;55.21;100309.22;5062741;28;20515;-65
2021/05/09 04:10:52;;;;;;;4.32;3.92;;;;;;;12.71;54.34;100297.97;5080041;28;20073;-64
2021/05/09 04:13:18;;;;;;;5.03;4.53;;;;;;;13.38;52.96;100304.25;5071500;28;20100;-64
2021/05/09 04:15:44;;;;;;;5.00;4.57;;;;;;;12.96;54.49;100305.28;5071577;28;20032;-65
2021/05/09 04:18:09;;;;;;;5.40;4.70;;;;;;;13.07;54.03;100294.44;5053848;28;20020;-65
2021/05/09 04:20:35;;;;;;;5.40;4.60;;;;;;;13.22;53.57;100298.47;5053929;28;20028;-65
2021/05/09 04:23:15;;;;;;;6.35;4.30;;;;;;;13.49;52.13;100300.44;5071821;28;20032;-64
2021/05/09 04:25:45;;;;;;;4.97;4.47;;;;;;;12.79;54.19;100300.41;5071449;28;20030;-65
2021/05/09 04:28:10;;;;;;;4.70;4.38;;;;;;;13.76;53.25;100297.94;5053976;28;20085;-64
2021/05/09 04:30:36;;;;;;;5.93;4.30;;;;;;;13.56;51.71;100302.03;5071531;28;20496;-64
2021/05/09 04:33:03;;;;;;;5.18;4.38;;;;;;;13.81;51.56;100293.41;5071703;28;20024;-64
2021/05/09 04:35:29;;;;;;;4.88;4.30;;;;;;;14.31;50.65;100295.44;5060923;28;20074;-64
2021/05/09 04:37:54;;;;;;;4.40;4.10;;;;;;;13.97;51.67;100292.03;5071527;28;20024;-64
2021/05/09 04:40:19;;;;;;;6.90;5.15;;;;;;;13.07;54.10;100294.44;5068617;28;20230;-64
2021/05/09 04:42:45;;;;;;;5.53;4.70;;;;;;;13.39;52.23;100299.78;5070424;28;20024;-64
2021/05/09 04:45:11;;;;;;;5.53;4.30;;;;;;;13.24;52.54;100301.94;5070220;28;20024;-65
2021/05/09 04:47:36;;;;;;;4.93;4.55;;;;;;;13.45;52.81;100304.94;5070170;28;20029;-64
2021/05/09 04:50:02;;;;;;;4.43;3.92;;;;;;;13.62;53.12;100293.91;5071570;28;20051;-64
2021/05/09 04:52:28;;;;;;;4.88;4.47;;;;;;;14.54;51.58;100295.66;5070230;28;20078;-65
2021/05/09 04:54:53;;;;;;;5.28;4.60;;;;;;;15.27;48.40;100299.44;5070107;28;20036;-64
2021/05/09 04:57:19;;;;;;;5.88;5.40;;;;;;;14.99;48.52;100303.06;5068313;28;20445;-66
2021/05/09 04:59:44;;;;;;;6.13;5.53;;;;;;;15.67;47.31;100309.56;5071342;28;20025;-65
2021/05/09 05:02:09;;;;;;;5.50;5.00;;;;;;;15.96;47.01;100299.69;5071348;28;20430;-65
2021/05/09 05:04:34;;;;;;;4.75;4.28;;;;;;;15.61;46.75;100304.50;5071555;28;20055;-65
2021/05/09 05:07:00;;;;;;;4.93;4.53;;;;;;;16.73;44.01;100288.75;5071142;28;20032;-65
2021/05/09 05:09:25;;;;;;;5.07;4.35;;;;;;;15.06;45.62;100303.72;5070980;28;20032;-64
2021/05/09 05:11:52;;;;;;;4.82;4.20;;;;;;;15.35;46.43;100291.22;5071374;28;20438;-65
2021/05/09 05:14:18;;;;;;;4.55;4.10;;;;;;;16.93;43.53;100295.91;5071336;28;20399;-64
2021/05/09 05:16:43;;;;;;;7.20;4.50;;;;;;;15.14;48.51;100306.13;5068159;28;20017;-64
2021/05/09 05:19:08;;;;;;;5.63;4.95;;;;;;;14.29;48.47;100302.59;5069063;28;20028;-65
2021/05/09 05:21:33;;;;;;;5.22;4.50;;;;;;;14.48;48.26;100300.22;5071234;28;20029;-64
2021/05/09 05:23:59;;;;;;;5.18;4.22;;;;;;;14.07;49.28;100297.91;5072882;28;20483;-64
2021/05/09 05:26:24;;;;;;;8.43;5.53;;;;;;;14.79;49.45;100293.09;5074340;28;20043;-65
2021/05/09 05:28:49;;;;;;;6.05;5.45;;;;;;;16.98;44.31;100301.06;5073803;28;20058;-64
2021/05/09 05:31:15;;;;;;;7.45;4.95;;;;;;;17.56;42.07;100302.16;5074203;28;20499;-65
2021/05/09 05:33:40;;;;;;;5.95;4.63;;;;;;;18.91;39.87;100296.81;5074772;28;20031;-65
2021/05/09 05:36:06;;;;;;;7.03;4.43;;;;;;;18.41;41.16;100297.41;5056294;28;20016;-65
2021/05/09 05:38:31;;;;;;;6.65;4.22;;;;;;;19.35;39.30;100293.69;5074371;28;20020;-65
2021/05/09 05:40:57;;;;;;;5.30;4.10;;;;;;;18.78;40.43;100310.81;5073327;28;20115;-65
2021/05/09 05:43:24;;;;;;;5.72;4.53;;;;;;;18.30;40.25;100300.59;5056531;28;20021;-65
2021/05/09 05:45:50;;;;;;;4.70;4.10;;;;;;;18.53;39.67;100306.66;5074420;28;20047;-65
2021/05/09 05:48:16;;;;;;;4.78;4.20;;;;;;;20.79;36.65;100296.66;5074253;28;20108;-66
2021/05/09 05:50:41;;;;;;;8.38;4.03;;;;;;;19.36;38.60;100305.25;5074787;28;20311;-66
2021/05/09 05:53:06;;;;;;;6.90;3.92;;;;;;;22.57;32.79;100304.66;5074238;28;20024;-66
2021/05/09 05:55:32;;;;;;;8.82;4.07;;;;;;;27.10;27.19;100298.16;5073727;28;20116;-67
2021/05/09 05:57:57;;;;;;;6.22;4.15;;;;;;;29.02;24.39;100312.03;5074065;28;20083;-67
2021/05/09 06:00:22;;;;;;;5.80;3.85;;;;;;;30.71;22.08;100301.38;5073211;28;20028;-66
2021/05/09 06:02:48;;;;;;;6.03;3.80;;;;;;;29.28;23.63;100305.13;5073101;28;20024;-66
2021/05/09 06:05:13;;;;;;;6.15;4.00;;;;;;;30.60;22.79;100310.59;5073835;28;20052;-65
2021/05/09 06:07:38;;;;;;;5.10;3.78;;;;;;;33.33;19.37;100306.59;5071002;28;20031;-67
2021/05/09 06:10:04;;;;;;;5.20;3.47;;;;;;;33.02;19.71;100293.66;5073911;28;20038;-67
2021/05/09 06:12:29;;;;;;;5.07;3.97;;;;;;;34.85;18.48;100295.72;5062598;28;20037;-67
2021/05/09 06:14:55;;;;;;;4.07;3.13;;;;;;;36.27;16.80;100295.06;5073461;28;20024;-67
2021/05/09 06:17:20;;;;;;;5.30;3.60;;;;;;;33.68;19.84;100289.13;5073166;28;20086;-66
2021/05/09 06:19:45;;;;;;;4.22;2.90;;;;;;;35.58;16.23;100283.38;5073231;28;20038;-67
2021/05/09 06:22:11;;;;;;;4.53;3.03;;;;;;;35.01;18.01;100285.66;5073494;28;20028;-67
2021/05/09 06:24:36;;;;;;;3.10;2.42;;;;;;;36.89;16.55;100297.41;5072346;28;20020;-67
2021/05/09 06:27:01;;;;;;;3.38;2.55;;;;;;;34.36;18.38;100281.31;5073191;28;20035;-66
2021/05/09 06:29:26;;;;;;;3.58;2.50;;;;;;;32.53;19.92;100289.84;5073346;28;20032;-66
2021/05/09 06:31:52;;;;;;;3.03;2.72;;;;;;;34.45;18.15;100287.59;5073984;28;20457;-66
2021/05/09 06:34:17;;;;;;;2.95;2.63;;;;;;;36.29;16.48;100290.25;5055456;28;20068;-66
2021/05/09 06:36:43;;;;;;;2.88;2.55;;;;;;;36.62;16.30;100288.03;5072981;28;20028;-66
2021/05/09 06:39:08;;;;;;;2.90;2.45;;;;;;;36.92;16.43;100288.75;5072041;28;20024;-66
2021/05/09 06:41:35;;;;;;;3.55;2.78;;;;;;;35.27;18.62;100278.94;5070951;28;20071;-65
2021/05/09 06:44:03;;;;;;;3.72;2.53;;;;;;;31.20;20.83;100272.84;5071370;28;20154;-66
2021/05/09 06:46:28;;;;;;;2.63;2.40;;;;;;;27.57;25.84;100264.41;5070462;28;20117;-66
2021/05/09 06:48:53;;;;;;;3.08;2.28;;;;;;;25.82;29.23;100274.28;5071361;28;20059;-65
2021/05/09 06:51:19;;;;;;;5.30;1.90;;;;;;;29.50;23.72;100276.78;5073083;28;20032;-66
2021/05/09 06:53:45;;;;;;;1.70;1.60;;;;;;;33.19;20.29;100274.53;5059750;28;20020;-66
2021/05/09 06:56:10;;;;;;;2.10;2.00;;;;;;;33.64;19.84;100270.34;5054775;28;20470;-66
2021/05/09 06:58:35;;;;;;;3.22;2.25;;;;;;;34.61;19.15;100267.44;5057656;28;20174;-68
2021/05/09 07:01:01;;;;;;;3.05;2.20;;;;;;;34.05;19.58;100260.28;5066328;28;20089;-67
2021/05/09 07:03:26;;;;;;;1.80;1.70;;;;;;;37.82;15.61;100264.44;5071687;28;20024;-68
2021/05/09 07:05:53;;;;;;;2.20;2.00;;;;;;;39.08;14.46;100274.25;5071505;28;20030;-68
2021/05/09 07:08:18;;;;;;;1.92;1.77;;;;;;;39.51;14.16;100276.50;5071809;28;20021;-68
2021/05/09 07:10:44;;;;;;;2.90;2.08;;;;;;;39.16;15.12;100273.16;5072931;28;20388;-68
2021/05/09 07:13:09;;;;;;;2.55;1.88;;;;;;;37.96;15.84;100277.19;5071710;28;20052;-68
2021/05/09 07:15:37;;;;;;;1.83;1.73;;;;;;;41.03;13.65;100289.09;5072481;28;20017;-68
2021/05/09 07:18:14;;;;;;;2.22;1.50;;;;;;;38.77;14.99;100281.22;5071340;28;20020;-68
2021/05/09 07:20:45;;;;;;;2.15;1.42;;;;;;;39.69;14.20;100283.25;5070973;28;20028;-66
2021/05/09 07:23:12;;;;;;;1.77;1.67;;;;;;;39.85;14.30;100278.31;5056517;28;20024;-68
2021/05/09 07:25:37;;;;;;;1.83;1.58;;;;;;;41.57;13.40;100278.59;5064610;28;20033;-68
2021/05/09 07:28:13;;;;;;;1.58;1.45;;;;;;;44.77;11.08;100285.50;5062410;28;20498;-68
2021/05/09 07:30:40;;;;;;;1.80;1.25;;;;;;;42.39;12.73;100287.56;5067107;28;20020;-68
2021/05/09 07:33:07;;;;;;;1.65;1.55;;;;;;;43.03;12.34;100278.66;5054745;28;20574;-67
2021/05/09 07:35:33;;;;;;;1.88;1.77;;;;;;;41.66;13.06;100293.78;5064748;28;20031;-68
2021/05/09 07:38:03;;;;;;;3.08;1.60;;;;;;;44.84;11.43;100288.97;5070067;28;20025;-68
2021/05/09 07:40:28;;;;;;;1.58;1.48;;;;;;;43.16;11.45;100288.69;5071539;28;20029;-68
2021/05/09 07:42:53;;;;;;;2.28;1.48;;;;;;;43.84;11.74;100276.28;5072365;28;20048;-68
2021/05/09 07:45:21;;;;;;;1.70;1.60;;;;;;;42.81;12.31;100270.91;5071184;28;20039;-68
2021/05/09 07:47:46;;;;;;;1.40;1.30;;;;;;;41.94;12.55;100257.25;5070358;28;20328;-68
2021/05/09 07:50:13;;;;;;;3.45;1.60;;;;;;;45.23;10.90;100265.09;5058006;28;20055;-68
2021/05/09 07:52:39;;;;;;;2.45;1.30;;;;;;;45.62;10.18;100259.50;5052622;28;20020;-68
2021/05/09 07:55:05;;;;;;;1.50;1.40;;;;;;;44.45;11.61;100259.13;5054134;28;20030;-68
2021/05/09 07:57:31;;;;;;;1.50;1.40;;;;;;;42.32;12.36;100246.09;5072370;28;20089;-68
2021/05/09 07:59:56;;;;;;;1.98;1.58;;;;;;;43.92;11.57;100248.16;5058172;28;20433;-68
2021/05/09 08:02:22;;;;;;;2.65;1.30;;;;;;;42.18;13.14;100239.91;5071703;28;20077;-68
2021/05/09 08:04:47;;;;;;;1.30;1.20;;;;;;;40.52;13.87;100235.72;5053636;28;20055;-68
2021/05/09 08:07:12;;;;;;;1.30;1.20;;;;;;;42.29;12.75;100219.72;5070541;28;20016;-68
2021/05/09 08:09:38;;;;;;;2.13;1.40;;;;;;;41.57;13.39;100234.31;5053893;28;20119;-68
2021/05/09 08:12:03;;;;;;;1.52;1.33;;;;;;;39.71;14.45;100219.59;5054911;28;20016;-68
2021/05/09 08:14:29;;;;;;;1.65;1.35;;;;;;;42.00;12.85;100222.25;5072333;28;20115;-68
2021/05/09 08:16:54;;;;;;;2.00;1.13;;;;;;;41.66;13.54;100214.41;5071369;28;20033;-68
2021/05/09 08:19:19;;;;;;;1.60;1.40;;;;;;;42.83;12.86;100221.63;5071472;28;20340;-68
2021/05/09 08:21:44;;;;;;;1.30;1.20;;;;;;;43.87;12.20;100219.41;5051764;28;20278;-68
2021/05/09 08:24:10;;;;;;;1.50;1.37;;;;;;;43.95;11.35;100219.03;5072201;28;20281;-68
2021/05/09 08:26:35;;;;;;;3.28;2.97;;;;;;;42.53;12.70;100216.16;5069240;28;20291;-68
2021/05/09 08:29:02;;;;;;;1.43;1.20;;;;;;;45.84;10.77;100225.22;5054330;28;20024;-68
2021/05/09 08:31:27;;;;;;;1.25;1.17;;;;;;;46.24;10.41;100225.91;5071256;28;20267;-68
2021/05/09 08:33:53;;;;;;;1.20;1.20;;;;;;;44.52;11.64;100222.84;5071039;28;20062;-68
2021/05/09 08:36:18;;;;;;;1.50;1.35;;;;;;;45.08;11.17;100224.81;5070455;28;20271;-68
2021/05/09 08:38:44;;;;;;;1.20;1.10;;;;;;;44.73;12.17;100229.59;5052180;28;20162;-68
2021/05/09 08:41:09;;;;;;;2.60;1.45;;;;;;;44.21;12.31;100214.78;5071525;28;20024;-68
2021/05/09 08:43:35;;;;;;;1.30;1.20;;;;;;;42.26;12.74;100213.81;5070940;28;20021;-68
2021/05/09 08:46:01;;;;;;;1.75;1.20;;;;;;;45.94;11.04;100206.97;5071189;28;20029;-68
2021/05/09 08:48:27;;;;;;;1.45;1.35;;;;;;;44.97;11.06;100206.31;5071224;28;20113;-68
2021/05/09 08:50:52;;;;;;;1.48;1.30;;;;;;;45.97;10.91;100206.44;5068164;28;20111;-68
2021/05/09 08:53:18;;;;;;;1.45;1.27;;;;;;;47.84;10.01;100209.56;5057073;28;20106;-69
2021/05/09 08:55:44;;;;;;;1.27;1.10;;;;;;;45.90;10.84;100219.72;5070842;28;20023;-69
2021/05/09 08:58:11;;;;;;;1.05;0.95;;;;;;;46.77;10.52;100213.28;5072732;28;20024;-69
2021/05/09 09:00:36;;;;;;;1.70;1.00;;;;;;;44.32;12.15;100210.28;5074065;28;20052;-69
2021/05/09 09:03:03;;;;;;;1.23;0.98;;;;;;;45.93;11.19;100208.09;5075130;28;20051;-69
2021/05/09 09:05:41;;;;;;;2.38;1.38;;;;;;;46.06;11.43;100216.00;5074347;28;20162;-68
2021/05/09 09:08:08;;;;;;;1.20;1.08;;;;;;;46.58;10.30;100205.31;5062853;28;20020;-68
2021/05/09 09:10:53;;;;;;;1.60;0.93;;;;;;;45.64;12.33;100208.28;5075542;28;20028;-68
2021/05/09 09:13:23;;;;;;;1.25;1.15;;;;;;;47.34;10.45;100208.00;5072284;28;20040;-68
2021/05/09 09:16:01;;;;;;;1.00;0.90;;;;;;;46.40;11.08;100200.16;5074219;28;20070;-67
2021/05/09 09:18:27;;;;;;;2.60;1.30;;;;;;;47.28;10.33;100187.59;5073394;28;20040;-68
2021/05/09 09:20:52;;;;;;;1.63;0.82;;;;;;;48.16;9.58;100195.38;5058500;28;20032;-67
2021/05/09 09:23:18;;;;;;;2.60;1.03;;;;;;;46.41;11.29;100185.97;5074217;28;20036;-68
2021/05/09 09:25:43;;;;;;;1.60;1.05;;;;;;;44.61;13.00;100168.47;5054825;28;20278;-68
2021/05/09 09:28:09;;;;;;;1.48;0.88;;;;;;;47.48;10.96;100171.22;5073812;28;20017;-67
2021/05/09 09:30:47;;;;;;;1.30;1.20;;;;;;;44.92;12.19;100183.97;5057914;28;20094;-68
2021/05/09 09:33:15;;;;;;;1.00;0.90;;;;;;;44.77;12.58;100177.06;5075151;28;20051;-68
2021/05/09 09:35:42;;;;;;;2.28;1.90;;;;;;;46.49;11.22;100177.09;5066955;28;20029;-67
2021/05/09 09:38:25;;;;;;;2.53;1.08;;;;;;;45.49;11.40;100168.00;5058138;28;20112;-67
2021/05/09 09:41:12;;;;;;;1.00;1.00;;;;;;;45.36;11.26;100175.66;5060552;28;20486;-67
2021/05/09 09:43:39;;;;;;;0.90;0.90;;;;;;;46.76;10.93;100170.59;5070137;28;20036;-68
2021/05/09 09:46:23;;;;;;;2.65;1.00;;;;;;;42.78;13.52;100160.53;5074669;28;20031;-68
2021/05/09 09:48:49;;;;;;;2.65;1.30;;;;;;;42.21;13.52;100156.38;5073343;28;20562;-68
2021/05/09 09:51:14;;;;;;;0.80;0.80;;;;;;;43.08;12.99;100154.00;5074294;28;20024;-68
2021/05/09 09:53:42;;;;;;;2.57;1.00;;;;;;;44.45;12.26;100158.25;5056698;28;20340;-68
2021/05/09 09:56:12;;;;;;;1.20;0.93;;;;;;;44.48;13.13;100160.50;5074469;28;20267;-68
2021/05/09 09:58:50;;;;;;;1.33;0.85;;;;;;;45.10;11.80;100166.97;5073186;28;20306;-67
2021/05/09 10:01:21;;;;;;;1.55;1.45;;;;;;;43.81;12.99;100166.53;5074524;28;20055;-68
2021/05/09 10:03:47;;;;;;;2.05;0.95;;;;;;;41.68;14.97;100156.03;5072273;28;20095;-67
2021/05/09 10:06:13;;;;;;;1.10;0.98;;;;;;;43.15;13.99;100158.56;5072593;28;20024;-68
2021/05/09 10:08:38;;;;;;;1.02;1.02;;;;;;;44.60;12.30;100164.03;5071756;28;20107;-68
2021/05/09 10:11:05;;;;;;;2.17;1.25;;;;;;;44.61;12.61;100162.09;5063433;28;20035;-68
2021/05/09 10:13:31;;;;;;;1.52;1.42;;;;;;;44.83;11.75;100153.81;5059323;28;20099;-68
2021/05/09 10:15:57;;;;;;;2.03;1.27;;;;;;;44.31;11.78;100147.44;5055286;28;20516;-69
2021/05/09 10:18:24;;;;;;;4.07;1.40;;;;;;;44.27;12.43;100145.44;5071017;28;20035;-67
2021/05/09 10:20:49;;;;;;;2.15;1.10;;;;;;;43.37;12.81;100139.31;5072548;28;20028;-67
2021/05/09 10:23:17;;;;;;;2.38;1.20;;;;;;;44.86;11.51;100144.13;5072366;28;20075;-67
2021/05/09 10:25:54;;;;;;;1.23;0.88;;;;;;;44.65;12.58;100141.03;5073600;28;20024;-67
2021/05/09 10:28:26;;;;;;;1.55;1.42;;;;;;;44.07;12.74;100130.13;5062107;28;20035;-68
2021/05/09 10:30:54;;;;;;;2.83;1.10;;;;;;;42.65;13.26;100124.75;5059000;28;20376;-68
2021/05/09 10:33:37;;;;;;;1.40;1.05;;;;;;;43.90;12.71;100127.31;5073566;28;20020;-68
2021/05/09 10:36:03;;;;;;;1.95;1.17;;;;;;;42.13;13.74;100109.59;5069672;28;20396;-67
2021/05/09 10:38:28;;;;;;;1.58;1.38;;;;;;;42.85;13.34;100113.28;5057942;28;20028;-68
2021/05/09 10:41:09;;;;;;;1.07;1.07;;;;;;;42.03;14.30;100102.72;5073387;28;20747;-67
2021/05/09 10:43:35;;;;;;;1.83;1.30;;;;;;;42.53;13.88;100095.06;5073536;28;20345;-68
2021/05/09 10:46:00;;;;;;;1.23;0.98;;;;;;;41.62;15.01;100087.78;5072964;28;20130;-68
2021/05/09 10:48:31;;;;;;;1.05;1.00;;;;;;;41.24;15.97;100092.56;5072085;28;20077;-69
2021/05/09 10:51:02;;;;;;;2.20;1.50;;;;;;;37.58;18.46;100076.84;5069146;28;20025;-67
2021/05/09 10:53:48;;;;;;;1.45;1.10;;;;;;;39.32;17.08;100082.47;5073141;28;20233;-67
2021/05/09 10:56:16;;;;;;;1.70;1.17;;;;;;;37.19;18.87;100080.13;5054744;28;20547;-67
2021/05/09 10:58:47;;;;;;;1.48;1.38;;;;;;;34.76;22.68;100072.25;5073099;28;20082;-67
2021/05/09 11:01:42;;;;;;;1.27;1.17;;;;;;;34.50;21.76;100071.66;5073160;28;20446;-69
2021/05/09 11:04:09;;;;;;;1.80;1.30;;;;;;;34.26;22.29;100059.06;5038659;28;20045;-69
2021/05/09 11:06:40;;;;;;;1.13;1.10;;;;;;;34.76;21.67;100069.53;5071495;28;20051;-69
2021/05/09 11:09:29;;;;;;;1.67;1.30;;;;;;;34.34;21.96;100052.69;5051859;28;20365;-68
2021/05/09 11:11:59;;;;;;;1.85;1.60;;;;;;;34.11;22.94;100053.56;5027800;28;20539;-68
2021/05/09 11:14:24;;;;;;;1.17;1.07;;;;;;;35.97;20.60;100061.06;5071320;28;20036;-68
2021/05/09 11:17:02;;;;;;;2.08;1.83;;;;;;;35.41;21.48;100057.97;5070585;28;20739;-69
2021/05/09 11:19:39;;;;;;;1.40;1.30;;;;;;;35.80;21.14;100056.69;5071591;28;20028;-69
2021/05/09 11:22:05;;;;;;;2.65;1.30;;;;;;;35.62;20.72;100057.13;5070875;28;20360;-69